Time;durP1;ratioP1;P1;durP2;ratioP2;P2;SDS_P1;SDS_P2;PMS_P1;PMS_P2;Temp;Humidity;BMP_temperature;BMP_pressure;BME280_temperature;BME280_humidity;BME280_pressure;Samples;Min_cycle;Max_cycle;Signal;HPM_P1;HPM_P2
2023/12/07 00:01:10;;;;;;;4.00;3.30;;;;;;;;;;5076369;28;20654;-62
2023/12/07 00:03:38;;;;;;;3.10;2.80;;;;;;;;;;5077199;28;20210;-62
2023/12/07 00:06:06;;;;;;;3.17;2.88;;;;;;;;;;5077043;28;20225;-62
2023/12/07 00:08:32;;;;;;;3.15;2.85;;;;;;;;;;5076714;28;20269;-62
2023/12/07 00:11:01;;;;;;;3.20;2.90;;;;;;;;;;5076289;28;20461;-62
2023/12/07 00:13:29;;;;;;;2.80;2.60;;;;;;;;;;5076981;28;20257;-62
2023/12/07 00:15:57;;;;;;;3.00;2.67;;;;;;;;;;5076214;28;20282;-61
2023/12/07 00:18:24;;;;;;;3.03;2.80;;;;;;;;;;5076727;28;20211;-61
2023/12/07 00:20:51;;;;;;;3.10;2.80;;;;;;;;;;5076744;28;20270;-61
2023/12/07 00:23:19;;;;;;;3.00;2.80;;;;;;;;;;5077105;28;20547;-61
2023/12/07 00:25:46;;;;;;;3.20;2.90;;;;;;;;;;5076864;28;20228;-62
2023/12/07 00:28:16;;;;;;;3.10;2.80;;;;;;;;;;5077066;28;20250;-62
2023/12/07 00:30:43;;;;;;;3.17;2.88;;;;;;;;;;5076847;28;20211;-62
2023/12/07 00:33:11;;;;;;;3.17;2.92;;;;;;;;;;5076942;28;20250;-62
2023/12/07 00:35:39;;;;;;;2.83;2.60;;;;;;;;;;5076920;28;20529;-62
2023/12/07 00:38:08;;;;;;;3.05;2.75;;;;;;;;;;5076922;28;20290;-62
2023/12/07 00:40:39;;;;;;;2.90;2.70;;;;;;;;;;5077097;28;20492;-62
2023/12/07 00:43:08;;;;;;;3.00;2.80;;;;;;;;;;5077166;28;20205;-62
2023/12/07 00:45:37;;;;;;;3.10;2.80;;;;;;;;;;5076755;28;20254;-62
2023/12/07 00:48:04;;;;;;;3.20;2.90;;;;;;;;;;5077092;28;20219;-62
2023/12/07 00:50:32;;;;;;;3.25;2.75;;;;;;;;;;5076747;28;20261;-62
2023/12/07 00:52:59;;;;;;;3.25;2.97;;;;;;;;;;5077126;28;20215;-62
2023/12/07 00:55:27;;;;;;;3.17;2.92;;;;;;;;;;5076797;28;20287;-62
2023/12/07 00:57:55;;;;;;;3.45;3.15;;;;;;;;;;5076958;28;20212;-62
2023/12/07 01:00:22;;;;;;;3.08;2.88;;;;;;;;;;5077215;28;20240;-62
2023/12/07 01:02:51;;;;;;;3.08;2.78;;;;;;;;;;5080986;28;20196;-62
2023/12/07 01:05:19;;;;;;;2.70;2.50;;;;;;;;;;5080329;28;20224;-62
2023/12/07 01:07:46;;;;;;;3.15;2.92;;;;;;;;;;5080302;28;20223;-62
2023/12/07 01:10:15;;;;;;;3.00;2.80;;;;;;;;;;5080430;28;20236;-62
2023/12/07 01:12:42;;;;;;;2.97;2.78;;;;;;;;;;5080625;28;20592;-62
2023/12/07 01:15:10;;;;;;;2.78;2.55;;;;;;;;;;5080494;28;20207;-62
2023/12/07 01:17:38;;;;;;;2.92;2.72;;;;;;;;;;5080629;28;20299;-62
2023/12/07 01:20:11;;;;;;;2.70;2.50;;;;;;;;;;5080041;28;20310;-62
2023/12/07 01:22:39;;;;;;;2.70;2.50;;;;;;;;;;5080176;28;20588;-62
2023/12/07 01:25:08;;;;;;;2.70;2.50;;;;;;;;;;5080734;28;20228;-62
2023/12/07 01:27:35;;;;;;;2.83;2.63;;;;;;;;;;5080107;28;20262;-62
2023/12/07 01:30:03;;;;;;;2.80;2.60;;;;;;;;;;5080137;28;20211;-62
2023/12/07 01:32:31;;;;;;;3.38;2.60;;;;;;;;;;5080215;28;20214;-62
2023/12/07 01:34:57;;;;;;;2.95;2.72;;;;;;;;;;5080099;28;20226;-62
2023/12/07 01:37:27;;;;;;;2.85;2.65;;;;;;;;;;5080247;28;20204;-62
2023/12/07 01:39:54;;;;;;;2.63;2.42;;;;;;;;;;5079943;28;20196;-62
2023/12/07 01:42:22;;;;;;;2.83;2.63;;;;;;;;;;5079894;28;20204;-62
2023/12/07 01:44:49;;;;;;;2.60;2.40;;;;;;;;;;5080378;28;20204;-62
2023/12/07 01:47:17;;;;;;;2.92;2.72;;;;;;;;;;5080097;28;20304;-62
2023/12/07 01:49:45;;;;;;;2.58;2.38;;;;;;;;;;5079590;28;20311;-62
2023/12/07 01:52:13;;;;;;;2.60;2.40;;;;;;;;;;5079782;28;20250;-62
2023/12/07 01:54:42;;;;;;;2.80;2.60;;;;;;;;;;5079581;28;20244;-62
2023/12/07 01:57:09;;;;;;;2.90;2.70;;;;;;;;;;5079821;28;20715;-62
2023/12/07 01:59:37;;;;;;;3.05;2.75;;;;;;;;;;5079485;28;20215;-62
2023/12/07 02:02:04;;;;;;;3.17;2.88;;;;;;;;;;5079647;28;20742;-62
2023/12/07 02:04:32;;;;;;;2.83;2.63;;;;;;;;;;5079646;28;20494;-62
2023/12/07 02:07:01;;;;;;;2.50;2.30;;;;;;;;;;5079660;28;20224;-62
2023/12/07 02:09:29;;;;;;;3.33;2.28;;;;;;;;;;5079686;28;20248;-62
2023/12/07 02:11:58;;;;;;;3.10;2.72;;;;;;;;;;5078863;28;20269;-62
2023/12/07 02:14:26;;;;;;;2.83;2.63;;;;;;;;;;5079230;28;20584;-62
2023/12/07 02:16:57;;;;;;;2.60;2.40;;;;;;;;;;5079255;28;20204;-62
2023/12/07 02:19:33;;;;;;;2.40;2.20;;;;;;;;;;5079288;28;20208;-62
2023/12/07 02:22:01;;;;;;;2.60;2.40;;;;;;;;;;5078870;28;20282;-62
2023/12/07 02:24:29;;;;;;;2.70;2.50;;;;;;;;;;5079214;28;20213;-62
2023/12/07 02:26:58;;;;;;;2.50;2.30;;;;;;;;;;5078994;28;20232;-62
2023/12/07 02:29:25;;;;;;;2.65;2.45;;;;;;;;;;5079533;28;20239;-62
2023/12/07 02:31:53;;;;;;;2.65;2.45;;;;;;;;;;5079322;28;20250;-62
2023/12/07 02:34:21;;;;;;;2.60;2.40;;;;;;;;;;5078964;28;20212;-62
2023/12/07 02:36:50;;;;;;;2.58;2.38;;;;;;;;;;5078804;28;20300;-62
2023/12/07 02:39:18;;;;;;;2.72;2.53;;;;;;;;;;5078992;28;20649;-62
2023/12/07 02:41:47;;;;;;;2.72;2.53;;;;;;;;;;5078764;28;20591;-62
2023/12/07 02:44:16;;;;;;;2.92;2.72;;;;;;;;;;5078622;28;20306;-62
2023/12/07 02:46:44;;;;;;;3.00;2.70;;;;;;;;;;5078715;28;20246;-62
2023/12/07 02:49:11;;;;;;;3.22;2.90;;;;;;;;;;5078646;28;20876;-62
2023/12/07 02:51:39;;;;;;;2.72;2.53;;;;;;;;;;5078702;28;20204;-62
2023/12/07 02:54:06;;;;;;;2.65;2.45;;;;;;;;;;5078497;28;20208;-62
2023/12/07 02:56:34;;;;;;;2.47;2.28;;;;;;;;;;5078456;28;20200;-62
2023/12/07 02:59:01;;;;;;;2.80;2.60;;;;;;;;;;5078504;28;20208;-62
2023/12/07 03:01:31;;;;;;;2.90;2.70;;;;;;;;;;5078181;28;20631;-62
2023/12/07 03:03:58;;;;;;;3.15;2.85;;;;;;;;;;5078575;28;20629;-62
2023/12/07 03:06:25;;;;;;;3.00;2.80;;;;;;;;;;5078539;28;20228;-62
2023/12/07 03:08:53;;;;;;;2.67;2.47;;;;;;;;;;5078352;28;20205;-62
2023/12/07 03:11:21;;;;;;;3.25;2.95;;;;;;;;;;5077827;28;20204;-62
2023/12/07 03:13:48;;;;;;;3.03;2.72;;;;;;;;;;5078338;28;20612;-62
2023/12/07 03:16:16;;;;;;;2.75;2.55;;;;;;;;;;5077945;28;20215;-62
2023/12/07 03:18:45;;;;;;;3.40;3.10;;;;;;;;;;5078339;28;20204;-62
2023/12/07 03:21:12;;;;;;;3.08;2.80;;;;;;;;;;5077767;28;20333;-62
2023/12/07 03:23:39;;;;;;;3.15;2.90;;;;;;;;;;5077418;28;20479;-62
2023/12/07 03:26:07;;;;;;;3.10;2.78;;;;;;;;;;5077855;28;20228;-62
2023/12/07 03:28:35;;;;;;;2.70;2.50;;;;;;;;;;5077969;28;20254;-62
2023/12/07 03:31:02;;;;;;;3.67;2.92;;;;;;;;;;5078092;28;20303;-62
2023/12/07 03:33:30;;;;;;;3.10;2.80;;;;;;;;;;5078117;28;20205;-62
2023/12/07 03:35:58;;;;;;;2.97;2.60;;;;;;;;;;5077691;28;20655;-62
2023/12/07 03:38:26;;;;;;;2.90;2.70;;;;;;;;;;5077529;28;20273;-62
2023/12/07 03:40:54;;;;;;;3.25;2.95;;;;;;;;;;5077766;28;20215;-62
2023/12/07 03:43:21;;;;;;;3.22;2.92;;;;;;;;;;5077485;28;20212;-62
2023/12/07 03:45:49;;;;;;;3.33;3.03;;;;;;;;;;5077550;28;20242;-62
2023/12/07 03:48:16;;;;;;;3.03;2.83;;;;;;;;;;5077180;28;20204;-62
2023/12/07 03:50:44;;;;;;;3.72;3.00;;;;;;;;;;5077152;28;20295;-62
2023/12/07 03:53:13;;;;;;;3.28;2.97;;;;;;;;;;5077108;28;20204;-62
2023/12/07 03:55:41;;;;;;;3.10;2.80;;;;;;;;;;5076889;28;20239;-62
2023/12/07 03:58:08;;;;;;;3.00;2.70;;;;;;;;;;5076984;28;20349;-62
2023/12/07 04:00:36;;;;;;;3.30;3.00;;;;;;;;;;5077217;28;20667;-62
2023/12/07 04:03:03;;;;;;;3.03;2.83;;;;;;;;;;5077624;28;20235;-62
2023/12/07 04:05:31;;;;;;;3.35;3.05;;;;;;;;;;5077219;28;20230;-62
2023/12/07 04:07:59;;;;;;;3.45;3.13;;;;;;;;;;5077339;28;20315;-62
2023/12/07 04:10:28;;;;;;;3.10;2.88;;;;;;;;;;5077191;28;20243;-62
2023/12/07 04:12:55;;;;;;;3.47;3.17;;;;;;;;;;5076887;28;20204;-62
2023/12/07 04:15:23;;;;;;;3.20;3.00;;;;;;;;;;5077054;28;20236;-62
2023/12/07 04:17:50;;;;;;;3.40;3.10;;;;;;;;;;5077104;28;20200;-62
2023/12/07 04:20:17;;;;;;;3.28;2.97;;;;;;;;;;5076412;28;20243;-62
2023/12/07 04:22:46;;;;;;;3.10;2.80;;;;;;;;;;5076900;28;20204;-62
2023/12/07 04:25:13;;;;;;;3.25;2.95;;;;;;;;;;5076414;28;20215;-62
2023/12/07 04:27:43;;;;;;;3.05;2.85;;;;;;;;;;5076438;28;20318;-62
2023/12/07 04:30:11;;;;;;;3.42;3.13;;;;;;;;;;5076703;28;20220;-62
2023/12/07 04:32:39;;;;;;;3.50;3.15;;;;;;;;;;5076282;28;20308;-61
2023/12/07 04:35:08;;;;;;;3.20;2.90;;;;;;;;;;5078651;28;20552;-61
2023/12/07 04:37:36;;;;;;;3.58;3.00;;;;;;;;;;5081068;28;20211;-61
2023/12/07 04:40:04;;;;;;;3.20;3.00;;;;;;;;;;5080879;28;20210;-61
2023/12/07 04:42:32;;;;;;;3.90;2.97;;;;;;;;;;5081119;28;20273;-61
2023/12/07 04:45:01;;;;;;;3.35;3.08;;;;;;;;;;5080456;28;20283;-61
2023/12/07 04:47:28;;;;;;;2.80;2.60;;;;;;;;;;5080843;28;20314;-61
2023/12/07 04:49:56;;;;;;;3.20;2.83;;;;;;;;;;5080939;28;20258;-61
2023/12/07 04:52:23;;;;;;;3.17;2.90;;;;;;;;;;5080491;28;20253;-61
2023/12/07 04:54:51;;;;;;;3.08;2.88;;;;;;;;;;5080534;28;20204;-61
2023/12/07 04:57:18;;;;;;;2.88;2.67;;;;;;;;;;5080769;28;20238;-61
2023/12/07 04:59:46;;;;;;;3.08;2.78;;;;;;;;;;5080286;28;20641;-61
2023/12/07 05:02:16;;;;;;;3.15;2.85;;;;;;;;;;5080058;28;20208;-61
2023/12/07 05:04:44;;;;;;;3.17;2.88;;;;;;;;;;5080022;28;20196;-61
2023/12/07 05:07:12;;;;;;;3.25;2.95;;;;;;;;;;5079848;28;20513;-61
2023/12/07 05:09:40;;;;;;;3.42;3.13;;;;;;;;;;5079838;28;20219;-61
2023/12/07 05:12:07;;;;;;;2.85;2.65;;;;;;;;;;5079926;28;20257;-61
2023/12/07 05:14:36;;;;;;;3.70;3.35;;;;;;;;;;5079849;28;20590;-61
2023/12/07 05:17:03;;;;;;;3.22;2.92;;;;;;;;;;5079783;28;20255;-61
2023/12/07 05:19:32;;;;;;;3.33;3.03;;;;;;;;;;5079958;28;20626;-61
2023/12/07 05:21:59;;;;;;;3.22;2.97;;;;;;;;;;5079847;28;20228;-61
2023/12/07 05:24:27;;;;;;;3.35;3.15;;;;;;;;;;5079897;28;20212;-61
2023/12/07 05:26:54;;;;;;;2.97;2.78;;;;;;;;;;5079719;28;20644;-61
2023/12/07 05:29:22;;;;;;;3.33;3.03;;;;;;;;;;5079840;28;20503;-61
2023/12/07 05:31:50;;;;;;;2.88;2.65;;;;;;;;;;5078376;28;20215;-61
2023/12/07 05:34:18;;;;;;;3.35;3.10;;;;;;;;;;5078550;28;20232;-61
2023/12/07 05:36:47;;;;;;;3.38;3.08;;;;;;;;;;5078802;28;20196;-61
2023/12/07 05:39:17;;;;;;;2.95;2.75;;;;;;;;;;5079141;28;20212;-61
2023/12/07 05:41:46;;;;;;;3.13;2.83;;;;;;;;;;5078625;28;20270;-61
2023/12/07 05:44:14;;;;;;;3.03;2.83;;;;;;;;;;5078440;28;21107;-61
2023/12/07 05:46:44;;;;;;;3.20;2.90;;;;;;;;;;5077465;28;20234;-61
2023/12/07 05:49:11;;;;;;;3.40;3.10;;;;;;;;;;5078342;28;20588;-61
2023/12/07 05:51:39;;;;;;;3.10;2.80;;;;;;;;;;5079102;28;20227;-61
2023/12/07 05:54:08;;;;;;;2.97;2.75;;;;;;;;;;5078431;28;20693;-61
2023/12/07 05:56:35;;;;;;;3.08;2.75;;;;;;;;;;5077780;28;20200;-61
2023/12/07 05:59:03;;;;;;;3.30;3.00;;;;;;;;;;5077015;28;20588;-61
2023/12/07 06:01:30;;;;;;;3.28;3.00;;;;;;;;;;5077819;28;20223;-61
2023/12/07 06:03:57;;;;;;;3.25;2.95;;;;;;;;;;5076940;28;20212;-62
2023/12/07 06:06:24;;;;;;;3.45;3.15;;;;;;;;;;5077235;28;20585;-62
2023/12/07 06:08:52;;;;;;;3.10;2.80;;;;;;;;;;5077481;28;20231;-62
2023/12/07 06:11:21;;;;;;;3.00;2.75;;;;;;;;;;5076742;28;20205;-62
2023/12/07 06:13:48;;;;;;;3.30;3.00;;;;;;;;;;5076364;28;20214;-62
2023/12/07 06:16:17;;;;;;;3.25;3.03;;;;;;;;;;5076593;28;20207;-62
2023/12/07 06:18:44;;;;;;;2.72;2.53;;;;;;;;;;5075797;28;20207;-62
2023/12/07 06:21:12;;;;;;;3.00;2.80;;;;;;;;;;5075928;28;20836;-62
2023/12/07 06:23:39;;;;;;;3.25;2.95;;;;;;;;;;5076691;28;20258;-62
2023/12/07 06:26:07;;;;;;;2.88;2.67;;;;;;;;;;5058260;28;20208;-62
2023/12/07 06:28:36;;;;;;;3.17;2.90;;;;;;;;;;5057001;28;20239;-62
2023/12/07 06:31:07;;;;;;;3.20;2.90;;;;;;;;;;5057480;28;20224;-62
2023/12/07 06:33:34;;;;;;;3.20;3.00;;;;;;;;;;5057314;28;20466;-62
2023/12/07 06:36:03;;;;;;;3.35;3.05;;;;;;;;;;5057027;28;20225;-61
2023/12/07 06:38:30;;;;;;;3.13;2.92;;;;;;;;;;5055883;28;20490;-61
2023/12/07 06:40:57;;;;;;;3.85;3.05;;;;;;;;;;5056951;28;20205;-61
2023/12/07 06:43:25;;;;;;;3.00;2.70;;;;;;;;;;5056959;28;20213;-62
2023/12/07 06:45:54;;;;;;;3.05;2.78;;;;;;;;;;5055465;28;20204;-62
2023/12/07 06:48:22;;;;;;;4.30;3.10;;;;;;;;;;5055553;28;20287;-62
2023/12/07 06:50:49;;;;;;;3.13;2.83;;;;;;;;;;5055637;28;20220;-62
2023/12/07 06:53:18;;;;;;;4.47;3.22;;;;;;;;;;5056441;28;20224;-62
2023/12/07 06:55:45;;;;;;;3.60;3.30;;;;;;;;;;5056680;28;20231;-62
2023/12/07 06:58:12;;;;;;;3.65;3.35;;;;;;;;;;5055916;28;20201;-62
2023/12/07 07:00:40;;;;;;;3.78;3.25;;;;;;;;;;5056184;28;20216;-62
2023/12/07 07:03:09;;;;;;;3.30;3.00;;;;;;;;;;5055345;28;20209;-62
2023/12/07 07:05:36;;;;;;;4.05;3.53;;;;;;;;;;5056034;28;20205;-62
2023/12/07 07:08:06;;;;;;;3.60;3.30;;;;;;;;;;5055860;28;20224;-62
2023/12/07 07:10:33;;;;;;;3.88;3.50;;;;;;;;;;5056556;28;20227;-62
2023/12/07 07:13:04;;;;;;;3.58;3.28;;;;;;;;;;5057262;28;20205;-62
2023/12/07 07:15:31;;;;;;;3.25;2.95;;;;;;;;;;5056312;28;20200;-62
2023/12/07 07:17:59;;;;;;;3.50;3.17;;;;;;;;;;5055510;28;20201;-62
2023/12/07 07:20:28;;;;;;;4.18;3.60;;;;;;;;;;5055259;28;20252;-61
2023/12/07 07:22:55;;;;;;;3.60;3.30;;;;;;;;;;5055805;28;20209;-61
2023/12/07 07:25:23;;;;;;;3.88;3.35;;;;;;;;;;5056077;28;20291;-61
2023/12/07 07:27:52;;;;;;;3.78;3.47;;;;;;;;;;5056100;28;20233;-61
2023/12/07 07:30:19;;;;;;;3.65;3.35;;;;;;;;;;5055685;28;20576;-61
2023/12/07 07:32:47;;;;;;;6.35;3.67;;;;;;;;;;5055028;28;20213;-61
2023/12/07 07:35:14;;;;;;;3.90;3.50;;;;;;;;;;5056750;28;20213;-61
2023/12/07 07:37:43;;;;;;;3.80;3.28;;;;;;;;;;5056142;28;20588;-61
2023/12/07 07:40:11;;;;;;;3.60;3.30;;;;;;;;;;5056253;28;20299;-61
2023/12/07 07:42:39;;;;;;;3.97;3.40;;;;;;;;;;5056002;28;20215;-61
2023/12/07 07:45:07;;;;;;;3.60;3.30;;;;;;;;;;5055708;28;20238;-61
2023/12/07 07:47:35;;;;;;;3.67;3.30;;;;;;;;;;5054836;28;20322;-61
2023/12/07 07:50:05;;;;;;;3.65;3.20;;;;;;;;;;5054955;28;20204;-61
2023/12/07 07:52:32;;;;;;;3.55;3.25;;;;;;;;;;5055267;28;20266;-61
2023/12/07 07:55:02;;;;;;;3.28;2.97;;;;;;;;;;5055751;28;20614;-61
2023/12/07 07:57:30;;;;;;;3.38;3.00;;;;;;;;;;5055269;28;20205;-61
2023/12/07 07:59:58;;;;;;;4.45;3.70;;;;;;;;;;5055817;28;20658;-61
2023/12/07 08:02:25;;;;;;;3.30;3.00;;;;;;;;;;5055739;28;20215;-61
2023/12/07 08:04:52;;;;;;;3.63;3.33;;;;;;;;;;5055786;28;20205;-61
2023/12/07 08:07:20;;;;;;;4.43;3.40;;;;;;;;;;5055363;28;20256;-61
2023/12/07 08:09:47;;;;;;;3.40;3.10;;;;;;;;;;5055072;28;20201;-61
2023/12/07 08:12:16;;;;;;;3.95;3.55;;;;;;;;;;5054924;28;20593;-61
2023/12/07 08:14:44;;;;;;;3.78;3.47;;;;;;;;;;5054683;28;20205;-61
2023/12/07 08:17:11;;;;;;;4.13;3.10;;;;;;;;;;5055099;28;20257;-61
2023/12/07 08:19:39;;;;;;;3.78;3.35;;;;;;;;;;5055131;28;20209;-61
2023/12/07 08:22:06;;;;;;;3.55;3.25;;;;;;;;;;5055411;28;20205;-61
2023/12/07 08:24:33;;;;;;;4.97;3.30;;;;;;;;;;5055506;28;20275;-61
2023/12/07 08:27:01;;;;;;;3.40;3.10;;;;;;;;;;5054939;28;20205;-61
2023/12/07 08:29:29;;;;;;;3.70;3.40;;;;;;;;;;5055123;28;20208;-61
2023/12/07 08:31:57;;;;;;;3.67;3.38;;;;;;;;;;5056043;28;20584;-61
2023/12/07 08:34:25;;;;;;;3.67;3.30;;;;;;;;;;5055462;28;20219;-61
2023/12/07 08:36:52;;;;;;;3.65;3.35;;;;;;;;;;5055231;28;20204;-61
2023/12/07 08:39:20;;;;;;;3.50;3.20;;;;;;;;;;5054657;28;20208;-61
2023/12/07 08:41:47;;;;;;;3.40;3.10;;;;;;;;;;5054221;28;20212;-61
2023/12/07 08:44:14;;;;;;;3.65;3.35;;;;;;;;;;5053937;28;20212;-61
2023/12/07 08:46:44;;;;;;;3.42;3.13;;;;;;;;;;5054370;28;20584;-61
2023/12/07 08:49:12;;;;;;;3.55;3.20;;;;;;;;;;5054854;28;20224;-61
2023/12/07 08:51:40;;;;;;;3.58;3.28;;;;;;;;;;5054221;28;20206;-61
2023/12/07 08:54:07;;;;;;;3.38;3.08;;;;;;;;;;5054459;28;20216;-61
2023/12/07 08:56:34;;;;;;;3.40;3.10;;;;;;;;;;5054770;28;20244;-61
2023/12/07 08:59:01;;;;;;;3.63;3.17;;;;;;;;;;5054683;28;20215;-61
2023/12/07 09:01:30;;;;;;;3.63;3.33;;;;;;;;;;5054100;28;20201;-62
2023/12/07 09:03:59;;;;;;;3.60;3.30;;;;;;;;;;5053926;28;20577;-62
2023/12/07 09:06:26;;;;;;;4.10;3.28;;;;;;;;;;5054233;28;20205;-61
2023/12/07 09:08:55;;;;;;;3.85;3.55;;;;;;;;;;5053823;28;20229;-61
2023/12/07 09:11:22;;;;;;;3.55;3.25;;;;;;;;;;5054350;28;20216;-61
2023/12/07 09:13:50;;;;;;;3.78;3.47;;;;;;;;;;5054500;28;20209;-61
2023/12/07 09:16:17;;;;;;;3.63;3.20;;;;;;;;;;5054015;28;20615;-61
2023/12/07 09:18:46;;;;;;;3.60;3.30;;;;;;;;;;5054350;28;20202;-61
2023/12/07 09:21:14;;;;;;;3.55;3.25;;;;;;;;;;5054977;28;20597;-61
2023/12/07 09:23:42;;;;;;;4.53;3.60;;;;;;;;;;5057629;28;20216;-61
2023/12/07 09:26:09;;;;;;;3.78;3.47;;;;;;;;;;5058024;28;20217;-61
2023/12/07 09:28:36;;;;;;;3.28;2.97;;;;;;;;;;5058866;28;20229;-61
2023/12/07 09:31:04;;;;;;;3.65;3.35;;;;;;;;;;5058081;28;20204;-61
2023/12/07 09:33:31;;;;;;;3.78;3.47;;;;;;;;;;5057722;28;20208;-61
2023/12/07 09:35:58;;;;;;;3.38;3.08;;;;;;;;;;5058092;28;20209;-61
2023/12/07 09:38:27;;;;;;;3.83;3.53;;;;;;;;;;5058183;28;20462;-61
2023/12/07 09:40:55;;;;;;;3.50;3.20;;;;;;;;;;5058253;28;20755;-61
2023/12/07 09:43:22;;;;;;;3.67;3.38;;;;;;;;;;5057313;28;20205;-61
2023/12/07 09:45:50;;;;;;;3.92;3.25;;;;;;;;;;5057439;28;20798;-61
2023/12/07 09:48:19;;;;;;;4.10;3.70;;;;;;;;;;5057199;28;20505;-61
2023/12/07 09:50:46;;;;;;;3.35;2.92;;;;;;;;;;5058068;28;20248;-61
2023/12/07 09:53:13;;;;;;;3.80;3.40;;;;;;;;;;5057830;28;20205;-61
2023/12/07 09:55:42;;;;;;;3.72;3.42;;;;;;;;;;5058280;28;20220;-61
2023/12/07 09:58:09;;;;;;;3.85;3.53;;;;;;;;;;5056785;28;20211;-61
2023/12/07 10:00:37;;;;;;;3.67;3.38;;;;;;;;;;5058002;28;20212;-61
2023/12/07 10:03:07;;;;;;;3.78;3.38;;;;;;;;;;5057738;28;20215;-61
2023/12/07 10:05:35;;;;;;;3.90;3.50;;;;;;;;;;5057172;28;20233;-61
2023/12/07 10:08:02;;;;;;;3.55;3.25;;;;;;;;;;5056732;28;20298;-61
2023/12/07 10:10:29;;;;;;;3.40;3.10;;;;;;;;;;5057391;28;20710;-61
2023/12/07 10:13:00;;;;;;;4.15;3.78;;;;;;;;;;5056637;28;20208;-61
2023/12/07 10:15:30;;;;;;;3.75;3.45;;;;;;;;;;5057226;28;20207;-61
2023/12/07 10:17:59;;;;;;;3.90;3.58;;;;;;;;;;5056612;28;20201;-61
2023/12/07 10:20:27;;;;;;;3.45;3.15;;;;;;;;;;5056840;28;20650;-61
2023/12/07 10:23:13;;;;;;;3.60;3.30;;;;;;;;;;5057493;28;20220;-61
2023/12/07 10:25:41;;;;;;;3.90;3.50;;;;;;;;;;5057259;28;20205;-61
2023/12/07 10:28:12;;;;;;;4.10;3.70;;;;;;;;;;5056298;28;20260;-61
2023/12/07 10:30:41;;;;;;;3.45;3.15;;;;;;;;;;5056062;28;20209;-61
2023/12/07 10:33:09;;;;;;;4.43;3.60;;;;;;;;;;5056088;28;20518;-61
2023/12/07 10:35:40;;;;;;;3.30;3.00;;;;;;;;;;5055580;28;20212;-61
2023/12/07 10:38:07;;;;;;;3.83;3.53;;;;;;;;;;5055900;28;20205;-61
2023/12/07 10:40:34;;;;;;;4.40;3.63;;;;;;;;;;5055774;28;20201;-61
2023/12/07 10:43:05;;;;;;;3.90;3.50;;;;;;;;;;5056167;28;20211;-61
2023/12/07 10:45:35;;;;;;;3.72;3.42;;;;;;;;;;5056764;28;20205;-61
2023/12/07 10:48:06;;;;;;;3.83;3.53;;;;;;;;;;5054508;28;20213;-61
2023/12/07 10:50:35;;;;;;;4.20;3.80;;;;;;;;;;5055213;28;20205;-61
2023/12/07 10:53:06;;;;;;;3.97;3.58;;;;;;;;;;5056589;28;20208;-61
2023/12/07 10:55:37;;;;;;;4.50;4.10;;;;;;;;;;5056599;28;20489;-61
2023/12/07 10:58:07;;;;;;;4.00;3.70;;;;;;;;;;5056121;28;20209;-61
2023/12/07 11:00:36;;;;;;;4.05;3.65;;;;;;;;;;5054955;28;20205;-61
2023/12/07 11:03:03;;;;;;;3.83;3.33;;;;;;;;;;5056118;28;20205;-61
2023/12/07 11:05:31;;;;;;;4.00;3.60;;;;;;;;;;5056422;28;20208;-61
2023/12/07 11:08:01;;;;;;;3.80;3.50;;;;;;;;;;5056200;28;20610;-61
2023/12/07 11:10:32;;;;;;;4.35;3.80;;;;;;;;;;5054916;28;20216;-61
2023/12/07 11:13:09;;;;;;;3.90;3.50;;;;;;;;;;5055591;28;20205;-61
2023/12/07 11:15:38;;;;;;;3.85;3.45;;;;;;;;;;5055456;28;20310;-61
2023/12/07 11:18:05;;;;;;;3.67;3.38;;;;;;;;;;5054810;28;20204;-61
2023/12/07 11:20:42;;;;;;;4.30;3.90;;;;;;;;;;5053441;28;20331;-61
2023/12/07 11:23:10;;;;;;;4.10;3.70;;;;;;;;;;5054386;28;20201;-61
2023/12/07 11:25:38;;;;;;;4.20;3.80;;;;;;;;;;5055124;28;20296;-61
2023/12/07 11:28:07;;;;;;;4.32;3.80;;;;;;;;;;5054917;28;20204;-61
2023/12/07 11:30:36;;;;;;;3.80;3.42;;;;;;;;;;5054668;28;20761;-61
2023/12/07 11:33:06;;;;;;;3.47;3.17;;;;;;;;;;5054324;28;20209;-61
2023/12/07 11:35:34;;;;;;;4.18;3.80;;;;;;;;;;5054010;28;20209;-61
2023/12/07 11:38:07;;;;;;;3.80;3.50;;;;;;;;;;5053569;28;20600;-62
2023/12/07 11:40:37;;;;;;;3.92;3.63;;;;;;;;;;5053545;28;20312;-62
2023/12/07 11:43:06;;;;;;;4.57;4.18;;;;;;;;;;5052847;28;20196;-61
2023/12/07 11:45:43;;;;;;;4.22;3.83;;;;;;;;;;5053573;28;20213;-61
2023/12/07 11:48:13;;;;;;;4.10;3.70;;;;;;;;;;5053887;28;20201;-61
2023/12/07 11:51:02;;;;;;;4.00;3.60;;;;;;;;;;5054079;28;20232;-61
2023/12/07 11:53:30;;;;;;;4.10;3.70;;;;;;;;;;5053781;28;20208;-61
2023/12/07 11:55:58;;;;;;;4.47;3.70;;;;;;;;;;5053836;28;20201;-61
2023/12/07 11:58:26;;;;;;;4.03;3.72;;;;;;;;;;5053083;28;20209;-61
2023/12/07 12:00:56;;;;;;;4.18;3.78;;;;;;;;;;5054196;28;20205;-61
2023/12/07 12:03:25;;;;;;;3.88;3.58;;;;;;;;;;5054032;28;20303;-61
2023/12/07 12:05:52;;;;;;;3.95;3.65;;;;;;;;;;5051715;28;20204;-61
2023/12/07 12:08:20;;;;;;;3.85;3.42;;;;;;;;;;5053058;28;20201;-61
2023/12/07 12:10:49;;;;;;;3.85;3.55;;;;;;;;;;5053868;28;20682;-61
2023/12/07 12:13:17;;;;;;;4.15;3.75;;;;;;;;;;5052949;28;20271;-61
2023/12/07 12:15:45;;;;;;;4.20;3.80;;;;;;;;;;5053689;28;20701;-61
2023/12/07 12:18:13;;;;;;;3.60;3.30;;;;;;;;;;5054048;28;20240;-61
2023/12/07 12:20:43;;;;;;;3.88;3.58;;;;;;;;;;5044100;28;20248;-61
2023/12/07 12:23:10;;;;;;;3.70;3.40;;;;;;;;;;5034019;28;20202;-61
2023/12/07 12:25:39;;;;;;;4.30;3.90;;;;;;;;;;5034636;28;20316;-61
2023/12/07 12:28:07;;;;;;;3.60;3.30;;;;;;;;;;5032989;28;20263;-61
2023/12/07 12:30:35;;;;;;;4.32;3.92;;;;;;;;;;5034079;28;20318;-61
2023/12/07 12:33:02;;;;;;;4.13;3.72;;;;;;;;;;5034466;28;20608;-61
2023/12/07 12:35:30;;;;;;;4.50;3.95;;;;;;;;;;5034051;28;20210;-61
2023/12/07 12:37:58;;;;;;;3.90;3.50;;;;;;;;;;5034414;28;20205;-61
2023/12/07 12:40:28;;;;;;;3.85;3.55;;;;;;;;;;5034247;28;20210;-61
2023/12/07 12:42:56;;;;;;;4.25;3.85;;;;;;;;;;5034288;28;20631;-61
2023/12/07 12:45:24;;;;;;;3.63;3.33;;;;;;;;;;5034015;28;20206;-61
2023/12/07 12:47:51;;;;;;;3.53;3.20;;;;;;;;;;5032852;28;20205;-61
2023/12/07 12:50:34;;;;;;;3.67;3.38;;;;;;;;;;5033519;28;20229;-61
2023/12/07 12:53:04;;;;;;;3.72;3.30;;;;;;;;;;5032809;28;20213;-61
2023/12/07 12:55:32;;;;;;;4.20;3.80;;;;;;;;;;5034619;28;20209;-61
2023/12/07 12:58:00;;;;;;;4.20;3.53;;;;;;;;;;5038145;28;20252;-61
2023/12/07 13:00:27;;;;;;;3.80;3.50;;;;;;;;;;5037690;28;20197;-61
2023/12/07 13:02:55;;;;;;;3.80;3.50;;;;;;;;;;5037774;28;20198;-61
2023/12/07 13:05:23;;;;;;;3.83;3.47;;;;;;;;;;5038459;28;20523;-61
2023/12/07 13:07:50;;;;;;;3.90;3.50;;;;;;;;;;5037724;28;20802;-61
2023/12/07 13:10:20;;;;;;;3.90;3.25;;;;;;;;;;5037301;28;20233;-61
2023/12/07 13:12:48;;;;;;;3.72;3.35;;;;;;;;;;5036563;28;20264;-61
2023/12/07 13:15:15;;;;;;;4.22;3.53;;;;;;;;;;5036566;28;20480;-61
2023/12/07 13:17:42;;;;;;;4.18;3.75;;;;;;;;;;5037018;28;20489;-61
2023/12/07 13:20:11;;;;;;;4.00;3.55;;;;;;;;;;5036518;28;20236;-61
2023/12/07 13:22:39;;;;;;;3.60;3.30;;;;;;;;;;5037898;28;20671;-61
2023/12/07 13:25:07;;;;;;;3.90;3.50;;;;;;;;;;5037194;28;20241;-61
2023/12/07 13:27:36;;;;;;;4.03;3.60;;;;;;;;;;5036777;28;20206;-61
2023/12/07 13:30:06;;;;;;;3.80;3.50;;;;;;;;;;5036864;28;20628;-61
2023/12/07 13:32:34;;;;;;;3.80;3.40;;;;;;;;;;5036073;28;20260;-61
2023/12/07 13:35:01;;;;;;;3.92;3.60;;;;;;;;;;5037499;28;20209;-61
2023/12/07 13:37:29;;;;;;;3.85;3.55;;;;;;;;;;5035804;28;20209;-61
2023/12/07 13:39:57;;;;;;;4.10;3.70;;;;;;;;;;5036899;28;20197;-61
2023/12/07 13:42:26;;;;;;;4.28;3.95;;;;;;;;;;5036705;28;20264;-61
2023/12/07 13:44:57;;;;;;;4.15;3.75;;;;;;;;;;5035863;28;20224;-61
2023/12/07 13:47:28;;;;;;;3.95;3.55;;;;;;;;;;5037549;28;20248;-61
2023/12/07 13:49:56;;;;;;;3.80;3.50;;;;;;;;;;5036455;28;20691;-61
2023/12/07 13:52:23;;;;;;;3.92;3.60;;;;;;;;;;5036738;28;20635;-61
2023/12/07 13:54:51;;;;;;;3.75;3.45;;;;;;;;;;5036624;28;20220;-61
2023/12/07 13:57:19;;;;;;;3.80;3.42;;;;;;;;;;5036290;28;20202;-61
2023/12/07 13:59:47;;;;;;;3.80;3.50;;;;;;;;;;5036226;28;20205;-61
2023/12/07 14:02:16;;;;;;;3.80;3.50;;;;;;;;;;5036662;28;20229;-61
2023/12/07 14:04:43;;;;;;;3.70;3.38;;;;;;;;;;5036288;28;20205;-61
2023/12/07 14:07:12;;;;;;;3.97;3.63;;;;;;;;;;5036287;28;20216;-61
2023/12/07 14:09:39;;;;;;;3.85;3.55;;;;;;;;;;5036073;28;20613;-61
2023/12/07 14:12:08;;;;;;;3.90;3.60;;;;;;;;;;5035894;28;20210;-61
2023/12/07 14:14:36;;;;;;;3.97;3.67;;;;;;;;;;5036386;28;20228;-61
2023/12/07 14:17:03;;;;;;;3.70;3.40;;;;;;;;;;5035803;28;20211;-61
2023/12/07 14:19:33;;;;;;;3.75;3.45;;;;;;;;;;5036078;28;20202;-61
2023/12/07 14:22:00;;;;;;;3.80;3.45;;;;;;;;;;5036147;28;20241;-61
2023/12/07 14:24:30;;;;;;;3.38;3.10;;;;;;;;;;5035842;28;20206;-61
2023/12/07 14:26:58;;;;;;;3.63;3.30;;;;;;;;;;5035541;28;20757;-61
2023/12/07 14:29:25;;;;;;;3.80;3.40;;;;;;;;;;5034696;28;20233;-61
2023/12/07 14:31:52;;;;;;;3.85;3.30;;;;;;;;;;5036004;28;20499;-61
2023/12/07 14:34:20;;;;;;;3.88;3.58;;;;;;;;;;5034754;28;20206;-61
2023/12/07 14:36:49;;;;;;;3.72;3.42;;;;;;;;;;5035615;28;20206;-61
2023/12/07 14:39:16;;;;;;;3.42;3.13;;;;;;;;;;5035432;28;20212;-61
2023/12/07 14:41:46;;;;;;;4.10;3.70;;;;;;;;;;5035107;28;20245;-61
2023/12/07 14:44:14;;;;;;;3.90;3.60;;;;;;;;;;5035340;28;20215;-61
2023/12/07 14:46:43;;;;;;;3.70;3.40;;;;;;;;;;5035481;28;20356;-61
2023/12/07 14:49:11;;;;;;;3.53;3.22;;;;;;;;;;5034797;28;20229;-61